sensor_id;sensor_type;location;lat;lon;timestamp;P1;durP1;ratioP1;P2;durP2;ratioP2
66298;SDS011;53098;47.658;8.578;2022-10-17T00:00:57;7.10;;;1.80;;
66298;SDS011;53098;47.658;8.578;2022-10-17T00:03:23;6.73;;;2.00;;
66298;SDS011;53098;47.658;8.578;2022-10-17T00:05:48;7.07;;;1.53;;
66298;SDS011;53098;47.658;8.578;2022-10-17T00:08:14;7.30;;;2.03;;
66298;SDS011;53098;47.658;8.578;2022-10-17T00:10:40;6.88;;;2.10;;
66298;SDS011;53098;47.658;8.578;2022-10-17T00:13:06;13.82;;;2.03;;
66298;SDS011;53098;47.658;8.578;2022-10-17T00:15:31;11.20;;;1.95;;
66298;SDS011;53098;47.658;8.578;2022-10-17T00:17:56;6.30;;;1.93;;
66298;SDS011;53098;47.658;8.578;2022-10-17T00:20:22;8.50;;;2.10;;
66298;SDS011;53098;47.658;8.578;2022-10-17T00:22:47;16.33;;;2.85;;
66298;SDS011;53098;47.658;8.578;2022-10-17T00:25:13;11.60;;;2.40;;
66298;SDS011;53098;47.658;8.578;2022-10-17T00:27:39;10.73;;;1.90;;
66298;SDS011;53098;47.658;8.578;2022-10-17T00:30:06;4.85;;;2.05;;
66298;SDS011;53098;47.658;8.578;2022-10-17T00:32:31;35.30;;;3.08;;
66298;SDS011;53098;47.658;8.578;2022-10-17T00:34:57;27.53;;;2.57;;
66298;SDS011;53098;47.658;8.578;2022-10-17T00:37:22;7.90;;;2.28;;
66298;SDS011;53098;47.658;8.578;2022-10-17T00:39:47;11.03;;;3.47;;
66298;SDS011;53098;47.658;8.578;2022-10-17T00:42:12;8.57;;;1.97;;
66298;SDS011;53098;47.658;8.578;2022-10-17T00:47:10;6.82;;;1.98;;
66298;SDS011;53098;47.658;8.578;2022-10-17T00:49:36;5.28;;;2.10;;
66298;SDS011;53098;47.658;8.578;2022-10-17T00:52:07;6.32;;;2.03;;
66298;SDS011;53098;47.658;8.578;2022-10-17T00:54:34;10.68;;;1.80;;
66298;SDS011;53098;47.658;8.578;2022-10-17T00:57:01;5.82;;;2.00;;
66298;SDS011;53098;47.658;8.578;2022-10-17T00:59:27;5.07;;;1.65;;
66298;SDS011;53098;47.658;8.578;2022-10-17T01:01:55;7.63;;;2.20;;
66298;SDS011;53098;47.658;8.578;2022-10-17T01:04:23;10.55;;;1.98;;
66298;SDS011;53098;47.658;8.578;2022-10-17T01:06:48;6.53;;;2.17;;
66298;SDS011;53098;47.658;8.578;2022-10-17T01:09:13;10.80;;;2.17;;
66298;SDS011;53098;47.658;8.578;2022-10-17T01:11:44;4.28;;;2.05;;
66298;SDS011;53098;47.658;8.578;2022-10-17T01:14:15;7.13;;;1.65;;
66298;SDS011;53098;47.658;8.578;2022-10-17T01:16:43;5.88;;;1.90;;
66298;SDS011;53098;47.658;8.578;2022-10-17T01:34:22;7.87;;;2.03;;
66298;SDS011;53098;47.658;8.578;2022-10-17T01:36:53;7.82;;;2.00;;
66298;SDS011;53098;47.658;8.578;2022-10-17T01:44:54;6.03;;;1.80;;
66298;SDS011;53098;47.658;8.578;2022-10-17T01:47:21;7.50;;;2.05;;
66298;SDS011;53098;47.658;8.578;2022-10-17T01:49:48;7.38;;;2.28;;
66298;SDS011;53098;47.658;8.578;2022-10-17T01:52:17;13.63;;;2.42;;
66298;SDS011;53098;47.658;8.578;2022-10-17T01:54:45;9.40;;;2.22;;
66298;SDS011;53098;47.658;8.578;2022-10-17T01:57:14;5.25;;;2.20;;
66298;SDS011;53098;47.658;8.578;2022-10-17T01:59:43;18.50;;;2.30;;
66298;SDS011;53098;47.658;8.578;2022-10-17T02:02:10;12.82;;;2.47;;
66298;SDS011;53098;47.658;8.578;2022-10-17T02:04:36;11.43;;;2.17;;
66298;SDS011;53098;47.658;8.578;2022-10-17T02:07:08;9.70;;;2.50;;
66298;SDS011;53098;47.658;8.578;2022-10-17T02:09:34;12.68;;;2.33;;
66298;SDS011;53098;47.658;8.578;2022-10-17T02:14:34;7.80;;;2.17;;
66298;SDS011;53098;47.658;8.578;2022-10-17T02:17:08;13.13;;;3.00;;
66298;SDS011;53098;47.658;8.578;2022-10-17T02:22:37;16.50;;;2.58;;
66298;SDS011;53098;47.658;8.578;2022-10-17T02:27:32;4.63;;;1.97;;
66298;SDS011;53098;47.658;8.578;2022-10-17T02:30:01;18.15;;;2.33;;
66298;SDS011;53098;47.658;8.578;2022-10-17T02:32:32;15.45;;;2.13;;
66298;SDS011;53098;47.658;8.578;2022-10-17T02:34:58;8.50;;;1.90;;
66298;SDS011;53098;47.658;8.578;2022-10-17T02:37:26;9.90;;;2.35;;
66298;SDS011;53098;47.658;8.578;2022-10-17T02:39:53;8.18;;;2.95;;
66298;SDS011;53098;47.658;8.578;2022-10-17T02:42:19;6.82;;;2.00;;
66298;SDS011;53098;47.658;8.578;2022-10-17T02:44:45;11.88;;;2.50;;
66298;SDS011;53098;47.658;8.578;2022-10-17T02:47:28;14.35;;;2.50;;
66298;SDS011;53098;47.658;8.578;2022-10-17T02:49:56;18.23;;;3.05;;
66298;SDS011;53098;47.658;8.578;2022-10-17T02:54:58;9.68;;;2.72;;
66298;SDS011;53098;47.658;8.578;2022-10-17T02:59:57;8.45;;;2.70;;
66298;SDS011;53098;47.658;8.578;2022-10-17T03:02:23;10.35;;;2.85;;
66298;SDS011;53098;47.658;8.578;2022-10-17T03:04:49;10.20;;;2.63;;
66298;SDS011;53098;47.658;8.578;2022-10-17T03:07:14;7.80;;;2.50;;
66298;SDS011;53098;47.658;8.578;2022-10-17T03:09:40;9.60;;;3.53;;
66298;SDS011;53098;47.658;8.578;2022-10-17T03:12:05;8.60;;;2.20;;
66298;SDS011;53098;47.658;8.578;2022-10-17T03:14:30;13.77;;;3.17;;
66298;SDS011;53098;47.658;8.578;2022-10-17T03:16:55;10.53;;;3.27;;
66298;SDS011;53098;47.658;8.578;2022-10-17T03:19:21;14.45;;;3.35;;
66298;SDS011;53098;47.658;8.578;2022-10-17T03:21:46;21.87;;;3.30;;
66298;SDS011;53098;47.658;8.578;2022-10-17T03:24:11;9.50;;;3.17;;
66298;SDS011;53098;47.658;8.578;2022-10-17T03:26:37;10.00;;;3.00;;
66298;SDS011;53098;47.658;8.578;2022-10-17T03:29:02;5.43;;;2.57;;
66298;SDS011;53098;47.658;8.578;2022-10-17T03:31:27;8.25;;;3.03;;
66298;SDS011;53098;47.658;8.578;2022-10-17T03:33:53;9.68;;;3.08;;
66298;SDS011;53098;47.658;8.578;2022-10-17T03:36:18;6.67;;;2.80;;
66298;SDS011;53098;47.658;8.578;2022-10-17T03:38:43;5.67;;;2.63;;
66298;SDS011;53098;47.658;8.578;2022-10-17T03:41:09;6.88;;;2.38;;
66298;SDS011;53098;47.658;8.578;2022-10-17T03:43:34;9.10;;;2.30;;
66298;SDS011;53098;47.658;8.578;2022-10-17T03:46:00;12.20;;;2.70;;
66298;SDS011;53098;47.658;8.578;2022-10-17T03:48:25;12.27;;;2.60;;
66298;SDS011;53098;47.658;8.578;2022-10-17T03:50:51;21.77;;;3.13;;
66298;SDS011;53098;47.658;8.578;2022-10-17T03:53:19;9.23;;;2.87;;
66298;SDS011;53098;47.658;8.578;2022-10-17T03:55:45;12.40;;;3.60;;
66298;SDS011;53098;47.658;8.578;2022-10-17T03:58:10;10.93;;;3.23;;
66298;SDS011;53098;47.658;8.578;2022-10-17T04:00:35;21.80;;;4.03;;
66298;SDS011;53098;47.658;8.578;2022-10-17T04:03:00;11.40;;;3.67;;
66298;SDS011;53098;47.658;8.578;2022-10-17T04:05:26;19.43;;;2.87;;
66298;SDS011;53098;47.658;8.578;2022-10-17T04:07:51;11.45;;;3.85;;
66298;SDS011;53098;47.658;8.578;2022-10-17T04:10:16;28.37;;;4.20;;
66298;SDS011;53098;47.658;8.578;2022-10-17T04:12:42;21.75;;;3.78;;
66298;SDS011;53098;47.658;8.578;2022-10-17T04:15:07;16.97;;;3.60;;
66298;SDS011;53098;47.658;8.578;2022-10-17T04:17:33;11.20;;;2.97;;
66298;SDS011;53098;47.658;8.578;2022-10-17T04:19:58;17.57;;;3.50;;
66298;SDS011;53098;47.658;8.578;2022-10-17T04:22:23;12.33;;;3.03;;
66298;SDS011;53098;47.658;8.578;2022-10-17T04:24:49;9.27;;;3.37;;
66298;SDS011;53098;47.658;8.578;2022-10-17T04:27:14;11.45;;;3.70;;
66298;SDS011;53098;47.658;8.578;2022-10-17T04:29:39;26.33;;;3.70;;
66298;SDS011;53098;47.658;8.578;2022-10-17T04:32:05;24.23;;;3.60;;
66298;SDS011;53098;47.658;8.578;2022-10-17T04:34:30;13.33;;;3.03;;
66298;SDS011;53098;47.658;8.578;2022-10-17T04:36:55;14.30;;;2.77;;
66298;SDS011;53098;47.658;8.578;2022-10-17T04:39:20;8.83;;;2.67;;
66298;SDS011;53098;47.658;8.578;2022-10-17T04:41:46;12.17;;;3.23;;
66298;SDS011;53098;47.658;8.578;2022-10-17T04:44:11;42.47;;;5.32;;
66298;SDS011;53098;47.658;8.578;2022-10-17T04:46:37;16.77;;;3.88;;
66298;SDS011;53098;47.658;8.578;2022-10-17T04:49:02;9.07;;;3.70;;
66298;SDS011;53098;47.658;8.578;2022-10-17T04:51:27;22.33;;;4.45;;
66298;SDS011;53098;47.658;8.578;2022-10-17T04:53:52;22.47;;;3.13;;
66298;SDS011;53098;47.658;8.578;2022-10-17T04:56:20;26.75;;;3.03;;
66298;SDS011;53098;47.658;8.578;2022-10-17T04:58:45;10.02;;;2.70;;
66298;SDS011;53098;47.658;8.578;2022-10-17T05:01:12;10.80;;;2.55;;
66298;SDS011;53098;47.658;8.578;2022-10-17T05:03:37;7.35;;;2.53;;
66298;SDS011;53098;47.658;8.578;2022-10-17T05:06:04;10.98;;;2.33;;
66298;SDS011;53098;47.658;8.578;2022-10-17T05:08:30;5.07;;;2.15;;
66298;SDS011;53098;47.658;8.578;2022-10-17T05:10:55;17.60;;;1.93;;
66298;SDS011;53098;47.658;8.578;2022-10-17T05:13:20;4.87;;;2.00;;
66298;SDS011;53098;47.658;8.578;2022-10-17T05:15:45;10.37;;;1.90;;
66298;SDS011;53098;47.658;8.578;2022-10-17T05:18:11;12.87;;;2.13;;
66298;SDS011;53098;47.658;8.578;2022-10-17T05:20:36;4.83;;;1.83;;
66298;SDS011;53098;47.658;8.578;2022-10-17T05:23:01;3.50;;;1.60;;
66298;SDS011;53098;47.658;8.578;2022-10-17T05:25:26;7.70;;;1.93;;
66298;SDS011;53098;47.658;8.578;2022-10-17T05:27:52;6.67;;;2.30;;
66298;SDS011;53098;47.658;8.578;2022-10-17T05:30:17;5.97;;;2.03;;
66298;SDS011;53098;47.658;8.578;2022-10-17T05:32:42;5.13;;;2.13;;
66298;SDS011;53098;47.658;8.578;2022-10-17T05:35:08;9.47;;;4.67;;
66298;SDS011;53098;47.658;8.578;2022-10-17T05:37:33;15.73;;;7.37;;
66298;SDS011;53098;47.658;8.578;2022-10-17T05:39:58;17.40;;;7.00;;
66298;SDS011;53098;47.658;8.578;2022-10-17T05:42:24;15.20;;;6.50;;
66298;SDS011;53098;47.658;8.578;2022-10-17T05:44:49;16.67;;;6.13;;
66298;SDS011;53098;47.658;8.578;2022-10-17T05:47:14;12.17;;;6.60;;
66298;SDS011;53098;47.658;8.578;2022-10-17T05:49:40;22.50;;;6.40;;
66298;SDS011;53098;47.658;8.578;2022-10-17T05:52:05;13.30;;;4.27;;
66298;SDS011;53098;47.658;8.578;2022-10-17T05:54:30;12.93;;;4.55;;
66298;SDS011;53098;47.658;8.578;2022-10-17T05:56:56;9.82;;;3.75;;
66298;SDS011;53098;47.658;8.578;2022-10-17T05:59:23;12.20;;;3.57;;
66298;SDS011;53098;47.658;8.578;2022-10-17T06:01:48;9.88;;;3.78;;
66298;SDS011;53098;47.658;8.578;2022-10-17T06:04:13;17.60;;;3.20;;
66298;SDS011;53098;47.658;8.578;2022-10-17T06:06:39;5.20;;;2.87;;
66298;SDS011;53098;47.658;8.578;2022-10-17T06:09:04;6.75;;;2.78;;
66298;SDS011;53098;47.658;8.578;2022-10-17T06:11:30;9.50;;;3.67;;
66298;SDS011;53098;47.658;8.578;2022-10-17T06:13:55;6.50;;;2.70;;
66298;SDS011;53098;47.658;8.578;2022-10-17T06:16:21;5.50;;;2.60;;
66298;SDS011;53098;47.658;8.578;2022-10-17T06:18:46;7.40;;;2.92;;
66298;SDS011;53098;47.658;8.578;2022-10-17T06:21:11;6.27;;;2.57;;
66298;SDS011;53098;47.658;8.578;2022-10-17T06:23:38;6.75;;;2.97;;
66298;SDS011;53098;47.658;8.578;2022-10-17T06:26:07;8.73;;;2.87;;
66298;SDS011;53098;47.658;8.578;2022-10-17T06:28:32;6.65;;;3.20;;
66298;SDS011;53098;47.658;8.578;2022-10-17T06:30:58;10.05;;;3.35;;
66298;SDS011;53098;47.658;8.578;2022-10-17T06:33:23;7.80;;;3.13;;
66298;SDS011;53098;47.658;8.578;2022-10-17T06:35:52;10.68;;;2.92;;
66298;SDS011;53098;47.658;8.578;2022-10-17T06:38:18;6.10;;;2.90;;
66298;SDS011;53098;47.658;8.578;2022-10-17T06:40:43;6.47;;;2.55;;
66298;SDS011;53098;47.658;8.578;2022-10-17T06:43:08;7.07;;;2.37;;
66298;SDS011;53098;47.658;8.578;2022-10-17T06:45:33;9.37;;;2.73;;
66298;SDS011;53098;47.658;8.578;2022-10-17T06:48:00;18.27;;;3.03;;
66298;SDS011;53098;47.658;8.578;2022-10-17T06:50:25;12.95;;;2.80;;
66298;SDS011;53098;47.658;8.578;2022-10-17T06:52:51;5.80;;;2.87;;
66298;SDS011;53098;47.658;8.578;2022-10-17T06:55:16;9.20;;;3.70;;
66298;SDS011;53098;47.658;8.578;2022-10-17T06:57:41;24.73;;;4.30;;
66298;SDS011;53098;47.658;8.578;2022-10-17T07:00:07;16.23;;;4.17;;
66298;SDS011;53098;47.658;8.578;2022-10-17T07:02:33;11.98;;;4.03;;
66298;SDS011;53098;47.658;8.578;2022-10-17T07:04:58;15.00;;;3.67;;
66298;SDS011;53098;47.658;8.578;2022-10-17T07:07:24;7.50;;;3.50;;
66298;SDS011;53098;47.658;8.578;2022-10-17T07:09:50;12.97;;;4.53;;
66298;SDS011;53098;47.658;8.578;2022-10-17T07:12:15;17.38;;;4.95;;
66298;SDS011;53098;47.658;8.578;2022-10-17T07:14:40;10.27;;;4.83;;
66298;SDS011;53098;47.658;8.578;2022-10-17T07:17:06;18.10;;;5.07;;
66298;SDS011;53098;47.658;8.578;2022-10-17T07:19:31;10.17;;;4.83;;
66298;SDS011;53098;47.658;8.578;2022-10-17T07:21:57;11.70;;;4.85;;
66298;SDS011;53098;47.658;8.578;2022-10-17T07:24:22;11.60;;;4.80;;
66298;SDS011;53098;47.658;8.578;2022-10-17T07:26:47;13.93;;;4.90;;
66298;SDS011;53098;47.658;8.578;2022-10-17T07:29:12;9.17;;;3.83;;
66298;SDS011;53098;47.658;8.578;2022-10-17T07:31:38;9.47;;;3.90;;
66298;SDS011;53098;47.658;8.578;2022-10-17T07:34:03;10.23;;;3.60;;
66298;SDS011;53098;47.658;8.578;2022-10-17T07:36:28;10.52;;;3.75;;
66298;SDS011;53098;47.658;8.578;2022-10-17T07:38:54;6.53;;;3.10;;
66298;SDS011;53098;47.658;8.578;2022-10-17T07:41:19;8.55;;;3.10;;
66298;SDS011;53098;47.658;8.578;2022-10-17T07:43:45;8.67;;;3.50;;
66298;SDS011;53098;47.658;8.578;2022-10-17T07:46:10;8.70;;;3.25;;
66298;SDS011;53098;47.658;8.578;2022-10-17T07:48:36;8.83;;;2.63;;
66298;SDS011;53098;47.658;8.578;2022-10-17T07:51:02;4.35;;;2.22;;
66298;SDS011;53098;47.658;8.578;2022-10-17T07:53:27;7.05;;;2.75;;
66298;SDS011;53098;47.658;8.578;2022-10-17T07:55:53;6.20;;;3.00;;
66298;SDS011;53098;47.658;8.578;2022-10-17T07:58:18;4.37;;;2.13;;
66298;SDS011;53098;47.658;8.578;2022-10-17T08:00:43;7.53;;;2.57;;
66298;SDS011;53098;47.658;8.578;2022-10-17T08:03:09;7.43;;;2.30;;
66298;SDS011;53098;47.658;8.578;2022-10-17T08:05:34;5.88;;;2.28;;
66298;SDS011;53098;47.658;8.578;2022-10-17T08:08:00;3.87;;;1.90;;
66298;SDS011;53098;47.658;8.578;2022-10-17T08:10:25;4.18;;;2.50;;
66298;SDS011;53098;47.658;8.578;2022-10-17T08:12:50;6.47;;;2.15;;
66298;SDS011;53098;47.658;8.578;2022-10-17T08:15:16;3.50;;;1.90;;
66298;SDS011;53098;47.658;8.578;2022-10-17T08:17:41;12.07;;;1.90;;
66298;SDS011;53098;47.658;8.578;2022-10-17T08:20:06;11.73;;;1.87;;
66298;SDS011;53098;47.658;8.578;2022-10-17T08:22:32;7.75;;;1.95;;
66298;SDS011;53098;47.658;8.578;2022-10-17T08:24:57;6.00;;;1.80;;
66298;SDS011;53098;47.658;8.578;2022-10-17T08:27:22;4.57;;;1.60;;
66298;SDS011;53098;47.658;8.578;2022-10-17T08:29:48;7.90;;;2.23;;
66298;SDS011;53098;47.658;8.578;2022-10-17T08:32:13;7.00;;;1.90;;
66298;SDS011;53098;47.658;8.578;2022-10-17T08:34:38;9.27;;;1.77;;
66298;SDS011;53098;47.658;8.578;2022-10-17T08:37:03;5.50;;;1.67;;
66298;SDS011;53098;47.658;8.578;2022-10-17T08:39:29;5.87;;;1.70;;
66298;SDS011;53098;47.658;8.578;2022-10-17T08:49:28;7.27;;;2.33;;
66298;SDS011;53098;47.658;8.578;2022-10-17T08:52:00;5.95;;;2.65;;
66298;SDS011;53098;47.658;8.578;2022-10-17T08:56:55;5.75;;;2.70;;
66298;SDS011;53098;47.658;8.578;2022-10-17T08:59:28;9.50;;;3.13;;
66298;SDS011;53098;47.658;8.578;2022-10-17T09:07:24;11.07;;;3.38;;
66298;SDS011;53098;47.658;8.578;2022-10-17T09:12:22;8.00;;;3.05;;
66298;SDS011;53098;47.658;8.578;2022-10-17T09:20:17;5.90;;;2.80;;
66298;SDS011;53098;47.658;8.578;2022-10-17T09:22:48;8.63;;;2.45;;
66298;SDS011;53098;47.658;8.578;2022-10-17T09:25:16;6.78;;;2.60;;
66298;SDS011;53098;47.658;8.578;2022-10-17T09:27:43;6.03;;;2.67;;
66298;SDS011;53098;47.658;8.578;2022-10-17T09:32:37;5.75;;;2.47;;
66298;SDS011;53098;47.658;8.578;2022-10-17T09:35:03;4.77;;;2.53;;
66298;SDS011;53098;47.658;8.578;2022-10-17T09:37:29;4.97;;;2.67;;
66298;SDS011;53098;47.658;8.578;2022-10-17T09:39:54;6.35;;;2.75;;
66298;SDS011;53098;47.658;8.578;2022-10-17T09:42:20;7.72;;;2.42;;
66298;SDS011;53098;47.658;8.578;2022-10-17T09:44:51;7.55;;;2.80;;
66298;SDS011;53098;47.658;8.578;2022-10-17T09:49:47;5.75;;;2.75;;
66298;SDS011;53098;47.658;8.578;2022-10-17T09:52:14;7.68;;;2.67;;
66298;SDS011;53098;47.658;8.578;2022-10-17T09:54:42;5.13;;;2.40;;
66298;SDS011;53098;47.658;8.578;2022-10-17T09:57:08;7.47;;;3.05;;
66298;SDS011;53098;47.658;8.578;2022-10-17T09:59:41;6.03;;;2.60;;
66298;SDS011;53098;47.658;8.578;2022-10-17T10:02:08;5.72;;;2.40;;
66298;SDS011;53098;47.658;8.578;2022-10-17T10:04:34;7.35;;;2.67;;
66298;SDS011;53098;47.658;8.578;2022-10-17T10:07:00;8.33;;;3.00;;
66298;SDS011;53098;47.658;8.578;2022-10-17T10:09:26;6.20;;;2.97;;
66298;SDS011;53098;47.658;8.578;2022-10-17T10:11:56;6.30;;;3.08;;
66298;SDS011;53098;47.658;8.578;2022-10-17T10:14:22;7.55;;;2.60;;
66298;SDS011;53098;47.658;8.578;2022-10-17T10:16:49;8.43;;;2.60;;
66298;SDS011;53098;47.658;8.578;2022-10-17T10:21:56;6.95;;;2.50;;
66298;SDS011;53098;47.658;8.578;2022-10-17T10:24:21;7.38;;;2.40;;
66298;SDS011;53098;47.658;8.578;2022-10-17T10:26:47;8.87;;;2.90;;
66298;SDS011;53098;47.658;8.578;2022-10-17T10:29:32;5.97;;;2.63;;
66298;SDS011;53098;47.658;8.578;2022-10-17T10:34:35;8.00;;;2.30;;
66298;SDS011;53098;47.658;8.578;2022-10-17T10:37:03;4.47;;;2.13;;
66298;SDS011;53098;47.658;8.578;2022-10-17T10:39:46;4.47;;;2.15;;
66298;SDS011;53098;47.658;8.578;2022-10-17T10:42:31;4.82;;;2.20;;
66298;SDS011;53098;47.658;8.578;2022-10-17T10:44:59;6.03;;;2.42;;
66298;SDS011;53098;47.658;8.578;2022-10-17T10:47:25;5.85;;;2.22;;
66298;SDS011;53098;47.658;8.578;2022-10-17T10:49:52;5.10;;;2.15;;
66298;SDS011;53098;47.658;8.578;2022-10-17T10:52:36;4.28;;;2.00;;
66298;SDS011;53098;47.658;8.578;2022-10-17T10:55:09;10.75;;;2.20;;
66298;SDS011;53098;47.658;8.578;2022-10-17T10:57:39;6.65;;;2.42;;
66298;SDS011;53098;47.658;8.578;2022-10-17T11:00:15;6.47;;;2.03;;
66298;SDS011;53098;47.658;8.578;2022-10-17T11:02:48;5.60;;;2.53;;
66298;SDS011;53098;47.658;8.578;2022-10-17T11:12:41;10.77;;;4.60;;
66298;SDS011;53098;47.658;8.578;2022-10-17T11:22:35;13.82;;;7.40;;
66298;SDS011;53098;47.658;8.578;2022-10-17T11:27:36;13.68;;;7.03;;
66298;SDS011;53098;47.658;8.578;2022-10-17T11:30:03;12.77;;;4.95;;
66298;SDS011;53098;47.658;8.578;2022-10-17T11:32:48;10.73;;;4.25;;
66298;SDS011;53098;47.658;8.578;2022-10-17T11:35:28;10.32;;;4.55;;
66298;SDS011;53098;47.658;8.578;2022-10-17T11:40:42;8.13;;;3.65;;
66298;SDS011;53098;47.658;8.578;2022-10-17T11:43:19;7.30;;;3.05;;
66298;SDS011;53098;47.658;8.578;2022-10-17T11:45:46;15.88;;;3.53;;
66298;SDS011;53098;47.658;8.578;2022-10-17T11:48:16;8.20;;;3.15;;
66298;SDS011;53098;47.658;8.578;2022-10-17T11:50:46;6.32;;;2.25;;
66298;SDS011;53098;47.658;8.578;2022-10-17T11:53:15;9.23;;;2.63;;
66298;SDS011;53098;47.658;8.578;2022-10-17T11:55:41;5.40;;;2.30;;
66298;SDS011;53098;47.658;8.578;2022-10-17T12:00:53;6.60;;;2.30;;
66298;SDS011;53098;47.658;8.578;2022-10-17T12:06:19;9.55;;;3.25;;
66298;SDS011;53098;47.658;8.578;2022-10-17T12:13:59;9.57;;;2.13;;
66298;SDS011;53098;47.658;8.578;2022-10-17T12:21:24;8.27;;;2.47;;
66298;SDS011;53098;47.658;8.578;2022-10-17T12:23:50;10.83;;;2.40;;
66298;SDS011;53098;47.658;8.578;2022-10-17T12:26:23;7.05;;;2.25;;
66298;SDS011;53098;47.658;8.578;2022-10-17T12:28:50;9.52;;;2.22;;
66298;SDS011;53098;47.658;8.578;2022-10-17T12:33:47;5.90;;;2.10;;
66298;SDS011;53098;47.658;8.578;2022-10-17T12:46:40;5.65;;;2.13;;
66298;SDS011;53098;47.658;8.578;2022-10-17T12:52:14;7.10;;;2.50;;
66298;SDS011;53098;47.658;8.578;2022-10-17T12:54:40;5.85;;;1.75;;
66298;SDS011;53098;47.658;8.578;2022-10-17T12:57:12;4.88;;;1.50;;
66298;SDS011;53098;47.658;8.578;2022-10-17T12:59:41;6.00;;;2.22;;
66298;SDS011;53098;47.658;8.578;2022-10-17T13:02:07;3.65;;;1.77;;
66298;SDS011;53098;47.658;8.578;2022-10-17T13:04:38;5.53;;;1.80;;
66298;SDS011;53098;47.658;8.578;2022-10-17T13:07:03;8.05;;;1.80;;
66298;SDS011;53098;47.658;8.578;2022-10-17T13:09:30;7.68;;;2.40;;
66298;SDS011;53098;47.658;8.578;2022-10-17T13:11:57;10.82;;;2.13;;
66298;SDS011;53098;47.658;8.578;2022-10-17T13:14:23;6.57;;;2.50;;
66298;SDS011;53098;47.658;8.578;2022-10-17T13:16:50;9.52;;;2.40;;
66298;SDS011;53098;47.658;8.578;2022-10-17T13:19:17;11.35;;;2.10;;
66298;SDS011;53098;47.658;8.578;2022-10-17T13:21:53;13.35;;;1.90;;
66298;SDS011;53098;47.658;8.578;2022-10-17T13:24:28;7.32;;;2.00;;
66298;SDS011;53098;47.658;8.578;2022-10-17T13:26:54;9.77;;;1.98;;
66298;SDS011;53098;47.658;8.578;2022-10-17T13:29:20;7.10;;;2.22;;
66298;SDS011;53098;47.658;8.578;2022-10-17T13:31:45;10.30;;;1.90;;
66298;SDS011;53098;47.658;8.578;2022-10-17T13:34:16;4.93;;;1.90;;
66298;SDS011;53098;47.658;8.578;2022-10-17T13:36:42;14.23;;;2.50;;
66298;SDS011;53098;47.658;8.578;2022-10-17T13:39:09;7.93;;;1.90;;
66298;SDS011;53098;47.658;8.578;2022-10-17T13:41:36;6.97;;;1.60;;
66298;SDS011;53098;47.658;8.578;2022-10-17T13:44:03;5.30;;;1.87;;
66298;SDS011;53098;47.658;8.578;2022-10-17T13:46:31;7.18;;;2.13;;
66298;SDS011;53098;47.658;8.578;2022-10-17T13:48:57;4.97;;;1.90;;
66298;SDS011;53098;47.658;8.578;2022-10-17T13:51:24;9.20;;;1.90;;
66298;SDS011;53098;47.658;8.578;2022-10-17T13:53:50;9.73;;;2.10;;
66298;SDS011;53098;47.658;8.578;2022-10-17T13:56:20;7.88;;;2.00;;
66298;SDS011;53098;47.658;8.578;2022-10-17T13:58:49;5.22;;;2.10;;
66298;SDS011;53098;47.658;8.578;2022-10-17T14:01:15;4.78;;;2.08;;
66298;SDS011;53098;47.658;8.578;2022-10-17T14:03:41;4.28;;;1.90;;
66298;SDS011;53098;47.658;8.578;2022-10-17T14:06:10;9.98;;;2.38;;
66298;SDS011;53098;47.658;8.578;2022-10-17T14:08:37;12.38;;;3.80;;
66298;SDS011;53098;47.658;8.578;2022-10-17T14:11:12;4.72;;;2.05;;
66298;SDS011;53098;47.658;8.578;2022-10-17T14:13:37;6.93;;;1.92;;
66298;SDS011;53098;47.658;8.578;2022-10-17T14:16:03;5.93;;;2.00;;
66298;SDS011;53098;47.658;8.578;2022-10-17T14:18:33;8.93;;;2.22;;
66298;SDS011;53098;47.658;8.578;2022-10-17T14:20:59;7.40;;;1.80;;
66298;SDS011;53098;47.658;8.578;2022-10-17T14:23:27;9.02;;;3.00;;
66298;SDS011;53098;47.658;8.578;2022-10-17T14:26:03;7.45;;;2.17;;
66298;SDS011;53098;47.658;8.578;2022-10-17T14:28:29;9.05;;;2.20;;
66298;SDS011;53098;47.658;8.578;2022-10-17T14:31:07;8.20;;;2.10;;
66298;SDS011;53098;47.658;8.578;2022-10-17T14:33:33;9.25;;;2.10;;
66298;SDS011;53098;47.658;8.578;2022-10-17T14:35:59;7.15;;;2.08;;
66298;SDS011;53098;47.658;8.578;2022-10-17T14:38:26;7.10;;;2.03;;
66298;SDS011;53098;47.658;8.578;2022-10-17T14:40:59;6.45;;;1.98;;
66298;SDS011;53098;47.658;8.578;2022-10-17T14:43:26;5.63;;;1.88;;
66298;SDS011;53098;47.658;8.578;2022-10-17T14:45:52;6.97;;;2.05;;
66298;SDS011;53098;47.658;8.578;2022-10-17T14:48:21;9.73;;;2.17;;
66298;SDS011;53098;47.658;8.578;2022-10-17T14:53:31;5.95;;;1.83;;
66298;SDS011;53098;47.658;8.578;2022-10-17T14:56:01;5.27;;;1.70;;
66298;SDS011;53098;47.658;8.578;2022-10-17T14:58:27;13.32;;;2.40;;
66298;SDS011;53098;47.658;8.578;2022-10-17T15:00:53;8.20;;;3.10;;
66298;SDS011;53098;47.658;8.578;2022-10-17T15:03:19;6.85;;;2.40;;
66298;SDS011;53098;47.658;8.578;2022-10-17T15:05:45;9.13;;;1.92;;
66298;SDS011;53098;47.658;8.578;2022-10-17T15:08:11;5.75;;;2.20;;
66298;SDS011;53098;47.658;8.578;2022-10-17T15:10:38;9.68;;;2.00;;
66298;SDS011;53098;47.658;8.578;2022-10-17T15:13:03;8.15;;;2.25;;
66298;SDS011;53098;47.658;8.578;2022-10-17T15:15:29;9.50;;;1.95;;
66298;SDS011;53098;47.658;8.578;2022-10-17T15:17:54;7.65;;;1.83;;
66298;SDS011;53098;47.658;8.578;2022-10-17T15:20:19;9.80;;;2.05;;
66298;SDS011;53098;47.658;8.578;2022-10-17T15:22:45;24.65;;;3.40;;
66298;SDS011;53098;47.658;8.578;2022-10-17T15:25:10;14.17;;;2.17;;
66298;SDS011;53098;47.658;8.578;2022-10-17T15:27:35;7.75;;;1.85;;
66298;SDS011;53098;47.658;8.578;2022-10-17T15:30:01;9.03;;;2.00;;
66298;SDS011;53098;47.658;8.578;2022-10-17T15:32:26;10.00;;;2.10;;
66298;SDS011;53098;47.658;8.578;2022-10-17T15:34:51;12.93;;;2.47;;
66298;SDS011;53098;47.658;8.578;2022-10-17T15:37:21;10.63;;;2.37;;
66298;SDS011;53098;47.658;8.578;2022-10-17T15:39:51;10.85;;;2.15;;
66298;SDS011;53098;47.658;8.578;2022-10-17T15:42:16;11.60;;;2.63;;
66298;SDS011;53098;47.658;8.578;2022-10-17T15:44:42;11.75;;;2.13;;
66298;SDS011;53098;47.658;8.578;2022-10-17T15:47:08;8.07;;;1.80;;
66298;SDS011;53098;47.658;8.578;2022-10-17T15:49:39;10.30;;;2.60;;
66298;SDS011;53098;47.658;8.578;2022-10-17T15:52:04;9.90;;;1.80;;
66298;SDS011;53098;47.658;8.578;2022-10-17T15:54:29;11.70;;;1.83;;
66298;SDS011;53098;47.658;8.578;2022-10-17T15:56:55;8.13;;;1.77;;
66298;SDS011;53098;47.658;8.578;2022-10-17T15:59:21;12.50;;;1.77;;
66298;SDS011;53098;47.658;8.578;2022-10-17T16:01:47;8.50;;;1.80;;
66298;SDS011;53098;47.658;8.578;2022-10-17T16:04:12;9.35;;;2.47;;
66298;SDS011;53098;47.658;8.578;2022-10-17T16:06:37;11.23;;;1.83;;
66298;SDS011;53098;47.658;8.578;2022-10-17T16:09:03;6.28;;;2.00;;
66298;SDS011;53098;47.658;8.578;2022-10-17T16:11:35;12.82;;;1.90;;
66298;SDS011;53098;47.658;8.578;2022-10-17T16:14:02;6.85;;;2.15;;
66298;SDS011;53098;47.658;8.578;2022-10-17T16:16:28;6.28;;;1.58;;
66298;SDS011;53098;47.658;8.578;2022-10-17T16:18:54;7.45;;;2.40;;
66298;SDS011;53098;47.658;8.578;2022-10-17T16:21:20;8.23;;;2.00;;
66298;SDS011;53098;47.658;8.578;2022-10-17T16:23:47;5.65;;;2.00;;
66298;SDS011;53098;47.658;8.578;2022-10-17T16:26:12;9.95;;;2.38;;
66298;SDS011;53098;47.658;8.578;2022-10-17T16:28:37;7.90;;;1.93;;
66298;SDS011;53098;47.658;8.578;2022-10-17T16:31:03;6.07;;;2.10;;
66298;SDS011;53098;47.658;8.578;2022-10-17T16:33:28;9.77;;;2.05;;
66298;SDS011;53098;47.658;8.578;2022-10-17T16:35:53;9.27;;;3.07;;
66298;SDS011;53098;47.658;8.578;2022-10-17T16:38:18;6.77;;;1.83;;
66298;SDS011;53098;47.658;8.578;2022-10-17T16:40:44;8.23;;;2.90;;
66298;SDS011;53098;47.658;8.578;2022-10-17T16:43:10;8.13;;;2.10;;
66298;SDS011;53098;47.658;8.578;2022-10-17T16:45:36;10.63;;;2.17;;